createdAt,value
2023-03-17T00:01:57.086Z,57.88
2023-03-17T00:06:54.575Z,57.98
2023-03-17T00:11:51.237Z,58.50
2023-03-17T00:16:49.491Z,59.32
2023-03-17T00:21:46.591Z,59.79
2023-03-17T00:26:43.481Z,60.81
2023-03-17T00:31:44.711Z,61.77
2023-03-17T00:36:43.000Z,62.25
2023-03-17T00:41:39.908Z,62.47
2023-03-17T00:46:37.533Z,62.57
2023-03-17T00:51:34.515Z,62.28
2023-03-17T00:56:34.165Z,61.93
2023-03-17T01:01:31.372Z,61.93
2023-03-17T01:06:29.985Z,62.17
2023-03-17T01:11:27.092Z,62.32
2023-03-17T01:16:24.403Z,62.55
2023-03-17T01:21:21.889Z,62.82
2023-03-17T01:26:18.971Z,62.86
2023-03-17T01:31:15.694Z,62.50
2023-03-17T01:36:12.984Z,62.05
2023-03-17T01:41:10.200Z,62.03
2023-03-17T01:46:25.047Z,61.33
2023-03-17T01:51:24.807Z,61.15
2023-03-17T01:56:21.615Z,61.52
2023-03-17T02:01:20.542Z,61.71
2023-03-17T02:06:18.566Z,61.81
2023-03-17T02:11:16.771Z,62.11
2023-03-17T02:16:15.246Z,62.35
2023-03-17T02:21:29.922Z,62.36
2023-03-17T02:26:26.674Z,62.74
2023-03-17T02:31:24.969Z,63.25
2023-03-17T02:36:22.510Z,63.55
2023-03-17T02:41:20.174Z,63.85
2023-03-17T02:46:19.123Z,64.12
2023-03-17T02:51:15.937Z,64.33
2023-03-17T02:56:12.607Z,64.69
2023-03-17T03:01:13.392Z,65.44
2023-03-17T03:06:10.736Z,65.64
2023-03-17T03:11:07.520Z,65.64
2023-03-17T03:16:04.446Z,65.62
2023-03-17T03:21:01.867Z,65.62
2023-03-17T03:25:58.715Z,65.83
2023-03-17T03:30:55.409Z,65.83
2023-03-17T03:35:52.308Z,66.35
2023-03-17T03:40:49.647Z,67.21
2023-03-17T03:45:46.377Z,67.37
2023-03-17T03:50:43.105Z,67.26
2023-03-17T03:55:40.276Z,67.25
2023-03-17T04:00:37.595Z,67.23
2023-03-17T04:05:34.303Z,67.59
2023-03-17T04:10:31.475Z,67.22
2023-03-17T04:15:28.681Z,67.15
2023-03-17T04:20:31.519Z,66.75
2023-03-17T04:25:28.340Z,66.64
2023-03-17T04:30:25.043Z,66.93
2023-03-17T04:35:22.164Z,66.50
2023-03-17T04:40:19.710Z,67.23
2023-03-17T04:45:16.652Z,67.72
2023-03-17T04:50:13.356Z,67.86
2023-03-17T04:55:11.289Z,67.71
2023-03-17T05:00:09.585Z,67.91
2023-03-17T05:05:06.338Z,67.81
2023-03-17T05:10:03.158Z,67.50
2023-03-17T05:14:59.856Z,68.93
2023-03-17T05:19:58.116Z,69.76
2023-03-17T05:24:54.793Z,70.34
2023-03-17T05:29:51.548Z,70.03
2023-03-17T05:34:48.449Z,69.47
2023-03-17T05:39:45.985Z,69.33
2023-03-17T05:44:42.697Z,69.03
2023-03-17T05:49:39.362Z,69.61
2023-03-17T05:54:36.341Z,70.98
2023-03-17T05:59:34.463Z,71.31
2023-03-17T06:04:32.331Z,72.37
2023-03-17T06:09:29.128Z,73.56
2023-03-17T06:14:27.208Z,73.43
2023-03-17T06:19:24.759Z,72.88
2023-03-17T06:24:24.287Z,71.63
2023-03-17T06:29:21.251Z,71.40
2023-03-17T06:34:18.269Z,71.10
2023-03-17T06:39:19.215Z,70.45
2023-03-17T06:44:16.334Z,69.92
2023-03-17T06:49:13.235Z,69.77
2023-03-17T06:54:10.091Z,69.80
2023-03-17T06:59:07.445Z,69.85
2023-03-17T07:04:06.807Z,69.42
2023-03-17T07:09:03.812Z,69.59
2023-03-17T07:14:00.790Z,69.73
2023-03-17T07:18:58.248Z,69.58
2023-03-17T07:24:03.959Z,70.19
2023-03-17T08:58:28.508Z,57.69
2023-03-17T10:17:33.358Z,67.05
2023-03-17T10:22:34.617Z,63.72
2023-03-17T10:27:34.958Z,65.96
2023-03-17T10:32:36.154Z,63.26
2023-03-17T10:37:36.133Z,65.20
2023-03-17T10:42:33.053Z,62.40
2023-03-17T10:47:31.663Z,61.67
2023-03-17T10:52:30.571Z,61.17
2023-03-17T10:57:28.034Z,61.55
2023-03-17T11:03:51.285Z,61.00
2023-03-17T11:08:48.473Z,59.29
2023-03-17T11:14:04.175Z,60.84
2023-03-17T11:19:01.872Z,60.61
2023-03-17T11:24:07.728Z,58.91
2023-03-17T11:29:14.121Z,60.20
2023-03-17T11:34:17.676Z,60.29
2023-03-17T11:39:16.621Z,58.48
2023-03-17T11:44:37.961Z,59.15
2023-03-17T11:49:40.827Z,59.36
2023-03-17T11:55:00.821Z,61.46
2023-03-17T12:00:14.822Z,60.88
2023-03-17T12:05:14.851Z,61.12
2023-03-17T12:10:16.888Z,64.67
2023-03-17T12:15:15.583Z,67.40
2023-03-17T12:20:18.208Z,67.01
2023-03-17T12:25:20.824Z,67.28
2023-03-17T12:30:26.454Z,66.75
2023-03-17T12:35:27.193Z,67.80
2023-03-17T12:40:27.898Z,70.24
2023-03-17T12:45:42.354Z,70.99
2023-03-17T12:50:54.163Z,69.73
2023-03-17T12:55:52.740Z,70.83
2023-03-17T13:01:04.476Z,71.10
2023-03-17T13:06:02.008Z,69.81
2023-03-17T13:11:17.355Z,69.76
2023-03-17T13:16:27.499Z,69.45
2023-03-17T13:21:36.468Z,69.79
2023-03-17T13:26:55.166Z,70.34
2023-03-17T13:31:53.042Z,70.03
2023-03-17T13:36:58.481Z,70.72
2023-03-17T13:42:11.951Z,71.01
2023-03-17T13:47:26.717Z,70.10
2023-03-17T13:52:27.358Z,71.59
2023-03-17T13:57:26.284Z,71.66
2023-03-17T14:02:24.513Z,68.90
2023-03-17T14:07:24.070Z,68.64
2023-03-17T14:12:22.981Z,66.36
2023-03-17T14:17:22.812Z,66.68
2023-03-17T14:22:20.982Z,68.30
2023-03-17T14:28:10.652Z,68.67
2023-03-17T14:33:22.516Z,71.18
2023-03-17T14:38:20.214Z,71.43
2023-03-17T14:43:17.375Z,73.32
2023-03-17T14:48:16.150Z,74.46
2023-03-17T14:53:15.164Z,73.51
2023-03-17T14:58:18.502Z,73.97
2023-03-17T15:03:19.399Z,73.94
2023-03-17T15:08:30.249Z,75.15
2023-03-17T15:13:27.419Z,74.92
2023-03-17T15:18:26.498Z,76.08
2023-03-17T15:23:26.866Z,75.57
2023-03-17T15:28:25.666Z,75.96
2023-03-17T15:33:24.349Z,76.15
2023-03-17T15:38:21.587Z,76.10
2023-03-17T15:43:21.026Z,75.99
2023-03-17T15:48:21.194Z,76.52
2023-03-17T15:53:18.015Z,76.11
2023-03-17T15:58:15.295Z,77.57
2023-03-17T16:03:22.614Z,77.83
2023-03-17T16:08:21.465Z,78.02
2023-03-17T16:13:18.478Z,78.61
2023-03-17T16:18:18.502Z,78.67
2023-03-17T16:23:16.899Z,76.99
2023-03-17T16:28:16.123Z,76.21
2023-03-17T16:33:15.949Z,76.07
2023-03-17T16:38:14.224Z,75.85
2023-03-17T16:43:25.196Z,76.50
2023-03-17T16:48:22.809Z,74.13
2023-03-17T16:53:20.473Z,75.10
2023-03-17T16:58:18.867Z,74.84
2023-03-17T17:03:43.315Z,75.08
2023-03-17T17:08:42.750Z,75.27
2023-03-17T17:13:40.627Z,75.36
2023-03-17T17:18:37.972Z,75.87
2023-03-17T17:23:35.198Z,75.72
2023-03-17T17:28:32.608Z,76.62
2023-03-17T17:33:30.420Z,75.69
2023-03-17T17:38:28.410Z,74.79
2023-03-17T17:43:28.170Z,76.23
2023-03-17T17:48:26.145Z,76.35
2023-03-17T17:53:23.869Z,77.46
2023-03-17T17:58:24.941Z,78.38
2023-03-17T18:03:23.891Z,77.60
2023-03-17T18:08:20.797Z,78.05
2023-03-17T18:13:18.316Z,77.93
2023-03-17T18:18:15.201Z,78.12
2023-03-17T18:23:12.369Z,77.48
2023-03-17T18:28:09.208Z,77.52
2023-03-17T18:33:09.607Z,76.77
2023-03-17T18:38:07.681Z,76.96
2023-03-17T18:43:04.409Z,76.47
2023-03-17T18:48:01.294Z,76.49
2023-03-17T18:52:58.604Z,76.22
2023-03-17T18:57:58.222Z,74.95
2023-03-17T19:02:55.495Z,74.78
2023-03-17T19:07:52.693Z,74.47
2023-03-17T19:12:51.431Z,74.48
2023-03-17T19:17:49.681Z,74.28
2023-03-17T19:22:46.834Z,73.77
2023-03-17T19:27:43.604Z,73.53
2023-03-17T19:32:40.987Z,74.29
2023-03-17T19:37:37.953Z,75.24
2023-03-17T19:42:37.550Z,75.38
2023-03-17T19:47:34.410Z,75.89
2023-03-17T19:52:40.184Z,74.43
2023-03-17T19:57:36.874Z,73.89
2023-03-17T20:02:33.548Z,73.38
2023-03-17T20:07:32.506Z,74.51
2023-03-17T20:12:31.773Z,75.48
2023-03-17T20:17:28.725Z,74.80
2023-03-17T20:22:25.464Z,74.72
2023-03-17T20:27:25.684Z,74.15
2023-03-17T20:32:25.353Z,73.89
2023-03-17T20:37:22.773Z,74.16
2023-03-17T20:42:20.669Z,74.15
2023-03-17T20:47:17.564Z,73.16
2023-03-17T20:52:16.862Z,72.76
2023-03-17T20:57:14.356Z,72.97
2023-03-17T21:02:19.104Z,73.17
2023-03-17T21:07:20.542Z,73.60
2023-03-17T21:12:18.963Z,73.43
2023-03-17T21:17:17.425Z,73.02
2023-03-17T21:22:14.539Z,72.41
2023-03-17T21:27:15.416Z,71.65
2023-03-17T21:32:12.323Z,71.44
2023-03-17T21:37:10.263Z,70.63
2023-03-17T21:42:09.941Z,69.75
2023-03-17T21:47:07.421Z,70.48
2023-03-17T21:52:04.167Z,70.50
2023-03-17T21:57:01.223Z,69.78
2023-03-17T22:01:59.003Z,69.58
2023-03-17T22:06:56.300Z,69.62
2023-03-17T22:11:52.880Z,68.95
2023-03-17T22:16:49.483Z,68.64
2023-03-17T22:21:46.140Z,68.43
2023-03-17T22:26:43.633Z,68.20
2023-03-17T22:31:40.586Z,68.12
2023-03-17T22:36:37.436Z,67.64
2023-03-17T22:41:34.235Z,68.37
2023-03-17T22:46:34.013Z,70.22
2023-03-17T22:51:30.727Z,70.23
2023-03-17T22:56:29.675Z,71.43
2023-03-17T23:01:26.835Z,71.88
2023-03-17T23:06:24.422Z,72.36
2023-03-17T23:11:22.593Z,71.69
2023-03-17T23:16:19.710Z,70.86
2023-03-17T23:21:20.691Z,69.22
2023-03-17T23:26:18.361Z,70.43
2023-03-17T23:31:16.057Z,70.64
2023-03-17T23:36:13.570Z,70.14
2023-03-17T23:41:10.655Z,71.19
2023-03-17T23:46:10.732Z,71.90
2023-03-17T23:51:07.585Z,72.12
2023-03-17T23:56:04.839Z,73.51
